Time;durP1;ratioP1;P1;durP2;ratioP2;P2;SDS_P1;SDS_P2;PMS_P1;PMS_P2;Temp;Humidity;BMP_temperature;BMP_pressure;BME280_temperature;BME280_humidity;BME280_pressure;Samples;Min_cycle;Max_cycle;Signal;HPM_P1;HPM_P2
2023/12/15 00:01:19;;;;;;;15.60;8.80;;;;;;;3.59;100.00;101015.30;107166;1246;61711;-79
2023/12/15 00:03:47;;;;;;;14.60;8.10;;;;;;;3.57;100.00;101011.41;107319;1243;61721;-80
2023/12/15 00:06:16;;;;;;;11.90;6.50;;;;;;;3.58;100.00;101018.27;107401;1244;63481;-81
2023/12/15 00:08:45;;;;;;;14.90;8.10;;;;;;;3.60;100.00;101029.35;107107;1256;61522;-81
2023/12/15 00:11:14;;;;;;;11.30;6.50;;;;;;;3.66;100.00;101038.41;107239;1246;59536;-80
2023/12/15 00:13:43;;;;;;;13.40;7.00;;;;;;;3.64;100.00;101048.66;107217;1256;62285;-81
2023/12/15 00:16:12;;;;;;;15.10;8.20;;;;;;;3.63;100.00;101054.23;107176;1244;59026;-80
2023/12/15 00:18:41;;;;;;;14.30;7.60;;;;;;;3.70;100.00;101056.56;107184;1245;59505;-80
2023/12/15 00:21:10;;;;;;;12.70;6.80;;;;;;;3.74;100.00;101058.27;107231;1256;72205;-81
2023/12/15 00:23:39;;;;;;;13.70;7.60;;;;;;;3.75;100.00;101053.41;107411;1244;61692;-81
2023/12/15 00:26:08;;;;;;;13.40;7.20;;;;;;;3.61;100.00;101049.98;108116;1244;59680;-81
2023/12/15 00:28:37;;;;;;;13.60;7.30;;;;;;;3.64;100.00;101051.61;108113;1244;72738;-84
2023/12/15 00:31:05;;;;;;;14.30;7.80;;;;;;;3.59;100.00;101051.44;107378;1244;60619;-83
2023/12/15 00:33:34;;;;;;;10.80;5.50;;;;;;;3.65;100.00;101050.36;107296;1244;60570;-82
2023/12/15 00:36:05;;;;;;;13.10;7.30;;;;;;;3.58;100.00;101059.59;107178;1243;72927;-82
2023/12/15 00:38:34;;;;;;;14.00;7.20;;;;;;;3.56;100.00;101066.73;107234;1243;72437;-79
2023/12/15 00:47:25;;;;;;;11.80;7.00;;;;;;;3.41;100.00;101074.84;104522;1276;600662;-81
2023/12/15 00:49:55;;;;;;;11.80;6.40;;;;;;;3.33;100.00;101076.69;107337;1256;61656;-79
2023/12/15 00:52:24;;;;;;;11.70;6.80;;;;;;;3.34;100.00;101066.86;108470;1247;58962;-78
2023/12/15 00:54:53;;;;;;;12.40;6.40;;;;;;;3.31;100.00;101075.23;108866;1247;61440;-81
2023/12/15 00:57:23;;;;;;;13.20;7.00;;;;;;;3.25;100.00;101079.41;108848;1249;71751;-81
2023/12/15 00:59:52;;;;;;;13.60;7.50;;;;;;;3.28;100.00;101080.34;108688;1247;217644;-75
2023/12/15 01:02:21;;;;;;;10.20;6.00;;;;;;;3.23;100.00;101088.08;109059;1247;63550;-82
2023/12/15 01:04:50;;;;;;;14.20;7.20;;;;;;;3.24;100.00;101096.14;107158;1247;57188;-84
2023/12/15 01:07:19;;;;;;;9.30;5.40;;;;;;;3.18;100.00;101099.46;106845;1258;60710;-84
2023/12/15 01:09:48;;;;;;;12.30;6.80;;;;;;;3.12;100.00;101098.80;107016;1247;72005;-84
2023/12/15 01:12:16;;;;;;;11.70;6.20;;;;;;;3.14;100.00;101102.50;106975;1246;72949;-83
2023/12/15 01:14:45;;;;;;;13.20;7.00;;;;;;;3.21;100.00;101103.46;106986;1248;69113;-82
2023/12/15 01:17:14;;;;;;;13.90;7.30;;;;;;;3.20;100.00;101102.31;106993;1248;62254;-81
2023/12/15 01:19:43;;;;;;;11.00;6.00;;;;;;;3.14;100.00;101100.45;106906;1248;61237;-80
2023/12/15 01:22:12;;;;;;;14.20;7.90;;;;;;;3.25;100.00;101109.89;107084;1248;62013;-80
2023/12/15 01:24:41;;;;;;;13.10;6.70;;;;;;;3.22;100.00;101112.07;107101;1248;71456;-80
2023/12/15 01:27:11;;;;;;;14.00;7.10;;;;;;;3.16;100.00;101118.77;107201;1248;71196;-81
2023/12/15 01:29:40;;;;;;;12.50;7.00;;;;;;;3.19;100.00;101114.73;107214;1248;60411;-80
2023/12/15 01:32:09;;;;;;;12.40;6.80;;;;;;;3.17;100.00;101117.02;106952;1248;63117;-81
2023/12/15 01:34:38;;;;;;;16.60;8.10;;;;;;;3.20;100.00;101119.16;107105;1247;58054;-80
2023/12/15 01:37:08;;;;;;;14.10;6.20;;;;;;;3.13;100.00;101124.59;106940;1246;59134;-82
2023/12/15 01:39:37;;;;;;;14.40;7.80;;;;;;;3.19;100.00;101118.00;107018;1254;71675;-80
2023/12/15 01:42:05;;;;;;;16.00;7.80;;;;;;;3.12;100.00;101120.33;106940;1246;72632;-81
2023/12/15 01:44:34;;;;;;;17.20;7.00;;;;;;;3.13;100.00;101124.23;106963;1248;60249;-81
2023/12/15 01:47:03;;;;;;;13.80;6.70;;;;;;;3.12;100.00;101126.48;106962;1247;63093;-81
2023/12/15 01:49:32;;;;;;;16.00;8.00;;;;;;;3.14;100.00;101134.35;106947;1248;57471;-82
2023/12/15 01:52:01;;;;;;;16.30;8.20;;;;;;;3.18;100.00;101136.63;106948;1248;60227;-82
2023/12/15 01:54:30;;;;;;;15.20;6.50;;;;;;;3.26;100.00;101145.45;106866;1248;62624;-80
2023/12/15 01:56:59;;;;;;;16.20;8.30;;;;;;;3.37;100.00;101148.70;107086;1250;61587;-81
2023/12/15 01:59:45;;;;;;;11.80;6.20;;;;;;;3.27;100.00;101148.21;107058;1253;69137;-81
2023/12/15 02:02:14;;;;;;;14.90;6.30;;;;;;;3.36;100.00;101163.03;107073;1252;73457;-81
2023/12/15 02:04:43;;;;;;;14.10;6.80;;;;;;;3.31;100.00;101171.10;107200;1245;63126;-81
2023/12/15 02:07:12;;;;;;;15.60;7.70;;;;;;;3.33;100.00;101183.93;107294;1256;60920;-82
2023/12/15 02:09:41;;;;;;;11.60;6.30;;;;;;;3.19;100.00;101188.58;107153;1248;61789;-81
2023/12/15 02:12:10;;;;;;;9.50;4.50;;;;;;;3.19;100.00;101189.59;107400;1245;61213;-81
2023/12/15 02:14:43;;;;;;;13.40;6.30;;;;;;;3.23;100.00;101191.88;107227;1255;69634;-80
2023/12/15 02:17:12;;;;;;;11.90;7.20;;;;;;;3.23;100.00;101193.08;107196;1245;73526;-81
2023/12/15 02:19:42;;;;;;;12.80;6.20;;;;;;;3.30;100.00;101196.27;107195;1253;57969;-79
2023/12/15 02:22:10;;;;;;;10.50;5.80;;;;;;;3.25;100.00;101206.45;106977;1256;60177;-79
2023/12/15 02:24:39;;;;;;;10.80;6.20;;;;;;;3.34;100.00;101210.94;107237;1245;72479;-79
2023/12/15 02:27:08;;;;;;;10.70;5.40;;;;;;;3.26;100.00;101212.08;107153;1248;72311;-80
2023/12/15 02:29:37;;;;;;;9.90;4.70;;;;;;;3.31;100.00;101212.08;107128;1256;62230;-83
2023/12/15 02:32:06;;;;;;;11.00;5.50;;;;;;;3.36;100.00;101215.01;107153;1245;63626;-82
2023/12/15 02:34:36;;;;;;;11.30;6.00;;;;;;;3.42;100.00;101219.13;106976;1248;61826;-82
2023/12/15 02:37:05;;;;;;;9.60;6.30;;;;;;;3.40;100.00;101223.83;107254;1243;60186;-82
2023/12/15 02:39:34;;;;;;;9.70;5.40;;;;;;;3.42;100.00;101226.70;107319;1256;62187;-82
2023/12/15 02:42:03;;;;;;;11.10;6.00;;;;;;;3.40;100.00;101226.77;107304;1256;71965;-81
2023/12/15 02:44:33;;;;;;;12.50;5.70;;;;;;;3.49;100.00;101226.44;107234;1248;59431;-82
2023/12/15 02:47:02;;;;;;;9.40;5.60;;;;;;;3.61;100.00;101220.34;107419;1245;73065;-82
2023/12/15 02:49:30;;;;;;;9.90;5.70;;;;;;;3.57;100.00;101227.88;107359;1255;61651;-83
2023/12/15 02:51:59;;;;;;;10.30;6.20;;;;;;;3.49;100.00;101225.27;107402;1256;61907;-81
2023/12/15 02:54:28;;;;;;;11.60;6.20;;;;;;;3.57;100.00;101230.83;107327;1247;72493;-81
2023/12/15 02:56:57;;;;;;;11.10;5.50;;;;;;;3.65;100.00;101231.05;107292;1252;62409;-82
2023/12/15 02:59:26;;;;;;;9.20;5.60;;;;;;;3.61;100.00;101224.13;107255;1248;59758;-80
2023/12/15 03:01:55;;;;;;;10.20;5.50;;;;;;;3.64;100.00;101220.56;107221;1248;62751;-81
2023/12/15 03:04:24;;;;;;;9.90;5.50;;;;;;;3.58;100.00;101229.23;107198;1246;59045;-79
2023/12/15 03:06:55;;;;;;;10.00;5.70;;;;;;;3.62;100.00;101232.89;107410;1246;58954;-81
2023/12/15 03:09:24;;;;;;;9.60;5.50;;;;;;;3.61;100.00;101233.59;107493;1245;61982;-80
2023/12/15 03:11:53;;;;;;;10.80;4.80;;;;;;;3.64;100.00;101240.21;108429;1243;72375;-80
2023/12/15 03:14:22;;;;;;;9.00;5.70;;;;;;;3.66;100.00;101247.70;107664;1245;59402;-81
2023/12/15 03:16:51;;;;;;;11.50;6.10;;;;;;;3.66;100.00;101255.46;107492;1245;62242;-80
2023/12/15 03:19:19;;;;;;;8.80;5.50;;;;;;;3.67;100.00;101267.84;107540;1245;61102;-80
2023/12/15 03:21:48;;;;;;;8.90;5.90;;;;;;;3.61;100.00;101272.02;108197;1244;61373;-80
2023/12/15 03:24:17;;;;;;;10.20;6.10;;;;;;;3.55;100.00;101273.09;108202;1245;63189;-80
2023/12/15 03:26:46;;;;;;;8.60;5.90;;;;;;;3.53;100.00;101279.87;107972;1245;60654;-81
2023/12/15 03:29:16;;;;;;;10.60;5.50;;;;;;;3.74;100.00;101287.77;107332;1245;70167;-84
2023/12/15 03:31:45;;;;;;;7.70;5.20;;;;;;;3.68;100.00;101287.44;107295;1256;72399;-80
2023/12/15 03:34:13;;;;;;;11.30;5.50;;;;;;;3.64;100.00;101290.85;107368;1256;62954;-81
2023/12/15 03:36:42;;;;;;;11.80;6.10;;;;;;;3.62;100.00;101289.20;107434;1256;61227;-78
2023/12/15 03:39:11;;;;;;;10.00;5.80;;;;;;;3.67;100.00;101291.10;107210;1244;62956;-82
2023/12/15 03:41:40;;;;;;;10.80;5.70;;;;;;;3.69;100.00;101291.73;107110;1256;61424;-83
2023/12/15 03:44:09;;;;;;;11.70;6.40;;;;;;;3.71;100.00;101298.88;107238;1245;59096;-81
2023/12/15 03:46:38;;;;;;;10.20;5.90;;;;;;;3.67;100.00;101299.70;107034;1248;72995;-81
2023/12/15 03:49:06;;;;;;;8.00;4.80;;;;;;;3.67;100.00;101299.88;107194;1243;61964;-81
2023/12/15 03:51:36;;;;;;;10.80;5.90;;;;;;;3.74;100.00;101307.39;107060;1255;60709;-81
2023/12/15 03:54:05;;;;;;;11.10;6.70;;;;;;;3.71;100.00;101307.17;107209;1248;71888;-82
2023/12/15 03:56:34;;;;;;;11.30;6.20;;;;;;;3.59;100.00;101313.93;107131;1248;71509;-80
2023/12/15 03:59:02;;;;;;;13.30;6.60;;;;;;;3.71;100.00;101310.78;107099;1248;69488;-82
2023/12/15 04:01:31;;;;;;;9.90;5.90;;;;;;;3.70;100.00;101313.58;107298;1246;75270;-81
2023/12/15 04:04:00;;;;;;;15.70;7.10;;;;;;;3.76;100.00;101318.17;107205;1247;62644;-81
2023/12/15 04:06:30;;;;;;;11.30;6.80;;;;;;;3.72;100.00;101322.27;107385;1245;58993;-81
2023/12/15 04:08:58;;;;;;;10.30;6.30;;;;;;;3.67;100.00;101323.65;107118;1247;72532;-81
2023/12/15 04:11:27;;;;;;;13.70;7.00;;;;;;;3.79;100.00;101327.58;107207;1253;61606;-82
2023/12/15 04:13:56;;;;;;;10.80;6.40;;;;;;;3.85;100.00;101335.10;107187;1250;68160;-81
2023/12/15 04:16:25;;;;;;;9.60;5.50;;;;;;;3.74;100.00;101338.91;107203;1244;74069;-81
2023/12/15 04:18:53;;;;;;;11.20;6.00;;;;;;;3.72;100.00;101331.25;107226;1245;60978;-80
2023/12/15 04:21:22;;;;;;;13.10;7.30;;;;;;;3.74;100.00;101330.32;107073;1248;61515;-81
2023/12/15 04:23:52;;;;;;;10.10;6.50;;;;;;;3.72;100.00;101330.54;107017;1257;71947;-78
2023/12/15 04:26:20;;;;;;;10.50;6.00;;;;;;;3.81;100.00;101335.41;107113;1257;72320;-80
2023/12/15 04:28:49;;;;;;;12.70;7.10;;;;;;;3.82;100.00;101341.26;107069;1248;70781;-80
2023/12/15 04:31:18;;;;;;;11.30;5.80;;;;;;;3.73;100.00;101340.69;107143;1249;62720;-80
2023/12/15 04:33:47;;;;;;;8.30;5.40;;;;;;;3.74;100.00;101345.14;107232;1253;58899;-79
2023/12/15 04:36:20;;;;;;;10.50;6.40;;;;;;;3.74;100.00;101349.44;107135;1257;60239;-80
2023/12/15 04:38:49;;;;;;;;;;;;;;;3.79;100.00;101354.62;107135;1244;62563;-81
2023/12/15 04:41:24;;;;;;;10.10;6.40;;;;;;;3.68;100.00;101364.61;107110;1255;72256;-82
2023/12/15 04:43:53;;;;;;;12.60;7.30;;;;;;;3.73;100.00;101377.36;107177;1257;60743;-82
2023/12/15 04:46:29;;;;;;;10.90;6.70;;;;;;;3.72;100.00;101384.82;107120;1245;63720;-79
2023/12/15 04:48:59;;;;;;;10.00;6.20;;;;;;;3.76;100.00;101388.66;107280;1246;59048;-80
2023/12/15 04:51:29;;;;;;;11.30;6.00;;;;;;;3.90;100.00;101393.69;107083;1244;59049;-79
2023/12/15 04:53:58;;;;;;;9.60;6.20;;;;;;;3.97;100.00;101393.45;107001;1256;72756;-81
2023/12/15 04:56:27;;;;;;;10.90;6.10;;;;;;;3.99;100.00;101389.77;107103;1245;61199;-82
2023/12/15 04:58:56;;;;;;;13.00;7.10;;;;;;;4.03;100.00;101391.02;107025;1246;69442;-82
2023/12/15 05:01:25;;;;;;;11.50;6.50;;;;;;;4.17;100.00;101396.38;107472;1256;74846;-80
2023/12/15 05:03:54;;;;;;;10.70;6.40;;;;;;;4.21;100.00;101400.54;107406;1244;58678;-78
2023/12/15 05:06:27;;;;;;;11.80;7.50;;;;;;;4.25;100.00;101403.38;107116;1243;60427;-77
2023/12/15 05:08:56;;;;;;;12.80;6.60;;;;;;;4.03;100.00;101416.87;107098;1255;62456;-77
2023/12/15 05:11:26;;;;;;;10.10;6.00;;;;;;;4.23;100.00;101420.67;106888;1245;71559;-79
2023/12/15 05:13:55;;;;;;;11.90;6.70;;;;;;;4.31;100.00;101423.33;106980;1247;60103;-77
2023/12/15 05:16:24;;;;;;;10.90;6.90;;;;;;;4.05;100.00;101426.77;107158;1248;72335;-76
2023/12/15 05:18:54;;;;;;;10.90;6.30;;;;;;;3.90;100.00;101429.36;106927;1244;61024;-74
2023/12/15 05:21:23;;;;;;;10.00;6.30;;;;;;;3.74;100.00;101403.36;106960;1244;60589;-75
2023/12/15 05:23:52;;;;;;;10.40;6.50;;;;;;;3.87;100.00;101433.09;106981;1244;64676;-74
2023/12/15 05:26:21;;;;;;;10.90;5.70;;;;;;;3.83;100.00;101439.42;107051;1245;61804;-74
2023/12/15 05:28:50;;;;;;;10.20;6.00;;;;;;;3.79;100.00;101437.31;107002;1247;59784;-75
2023/12/15 05:31:19;;;;;;;8.20;5.20;;;;;;;3.87;100.00;101441.88;107081;1246;63582;-74
2023/12/15 05:33:48;;;;;;;13.00;7.10;;;;;;;3.84;100.00;101455.23;107050;1249;59031;-73
2023/12/15 05:36:19;;;;;;;9.40;6.10;;;;;;;3.84;100.00;101462.50;107149;1255;59624;-74
2023/12/15 05:38:48;;;;;;;10.10;6.00;;;;;;;3.82;100.00;101472.54;107126;1254;62066;-74
2023/12/15 05:41:17;;;;;;;12.10;6.40;;;;;;;3.83;100.00;101476.13;107245;1245;61622;-73
2023/12/15 05:43:47;;;;;;;10.00;6.00;;;;;;;3.84;100.00;101482.13;107310;1248;69636;-73
2023/12/15 05:46:15;;;;;;;10.30;6.40;;;;;;;3.70;100.00;101486.86;107276;1256;73559;-74
2023/12/15 05:48:44;;;;;;;7.70;4.00;;;;;;;3.69;100.00;101488.98;107171;1246;62298;-72
2023/12/15 05:51:13;;;;;;;11.70;7.30;;;;;;;3.74;100.00;101507.23;107162;1246;61368;-74
2023/12/15 05:53:42;;;;;;;10.00;6.00;;;;;;;3.64;100.00;101507.73;107302;1245;73194;-75
2023/12/15 05:56:25;;;;;;;10.70;6.30;;;;;;;3.60;100.00;101510.45;107299;1244;72612;-73
2023/12/15 05:58:54;;;;;;;10.60;6.00;;;;;;;3.67;100.00;101516.61;107361;1245;59552;-74
2023/12/15 06:01:25;;;;;;;7.30;4.10;;;;;;;3.82;100.00;101526.82;107284;1246;63250;-74
2023/12/15 06:03:54;;;;;;;11.40;5.30;;;;;;;3.79;100.00;101531.05;107302;1247;58966;-73
2023/12/15 06:06:23;;;;;;;9.10;4.70;;;;;;;3.77;100.00;101532.30;109559;1245;58045;-73
2023/12/15 06:08:55;;;;;;;10.20;5.80;;;;;;;3.79;100.00;101540.02;109425;1248;64130;-74
2023/12/15 06:11:24;;;;;;;9.70;5.50;;;;;;;3.89;100.00;101543.98;109540;1245;61519;-74
2023/12/15 06:13:53;;;;;;;12.20;6.40;;;;;;;3.91;100.00;101550.14;109539;1245;59869;-74
2023/12/15 06:16:22;;;;;;;11.10;6.20;;;;;;;3.88;100.00;101556.78;109535;1245;72864;-73
2023/12/15 06:18:50;;;;;;;12.10;6.20;;;;;;;3.90;100.00;101553.43;109462;1246;62241;-74
2023/12/15 06:21:24;;;;;;;9.70;5.30;;;;;;;3.83;100.00;101558.66;109467;1247;60823;-74
2023/12/15 06:23:53;;;;;;;9.00;5.20;;;;;;;3.81;100.00;101564.08;109309;1251;63296;-76
2023/12/15 06:26:26;;;;;;;8.20;4.90;;;;;;;3.95;100.00;101570.52;109458;1244;72181;-74
2023/12/15 06:28:55;;;;;;;;;;;;;;;4.02;100.00;101582.02;109494;1244;69751;-74
2023/12/15 09:48:46;;;;;;;9.80;5.50;;;;;;;2.55;100.00;101833.45;104582;1281;601955;-74
2023/12/15 09:51:24;;;;;;;8.10;5.00;;;;;;;2.62;100.00;101829.19;106064;1261;61030;-74
2023/12/15 09:53:53;;;;;;;7.60;4.70;;;;;;;2.73;100.00;101836.00;106730;1250;58875;-76
2023/12/15 09:56:22;;;;;;;8.90;5.20;;;;;;;2.83;100.00;101842.85;106783;1250;61138;-76
2023/12/15 09:58:51;;;;;;;8.10;4.50;;;;;;;2.91;100.00;101845.41;106827;1252;69756;-77
2023/12/15 10:01:20;;;;;;;8.40;4.70;;;;;;;3.04;100.00;101849.76;106664;1247;252707;-77
2023/12/15 10:03:49;;;;;;;6.30;4.20;;;;;;;3.19;100.00;101858.38;106902;1247;74204;-77
2023/12/15 10:06:19;;;;;;;7.70;4.70;;;;;;;3.29;100.00;101859.33;106727;1252;62290;-76
2023/12/15 10:08:47;;;;;;;11.20;6.00;;;;;;;3.32;100.00;101857.54;106710;1260;60930;-77
2023/12/15 10:11:33;;;;;;;7.20;3.90;;;;;;;3.40;100.00;101864.59;106845;1247;71958;-77
2023/12/15 10:14:11;;;;;;;7.40;4.50;;;;;;;3.46;100.00;101859.46;107040;1251;61255;-82
2023/12/15 10:16:41;;;;;;;7.10;4.10;;;;;;;3.48;100.00;101859.21;106927;1251;70497;-75
2023/12/15 10:19:10;;;;;;;8.70;5.00;;;;;;;3.59;100.00;101862.73;106825;1252;73745;-80
2023/12/15 10:21:59;;;;;;;8.80;4.40;;;;;;;3.64;100.00;101869.33;107127;1251;62042;-74
2023/12/15 10:24:46;;;;;;;7.10;4.00;;;;;;;3.51;100.00;101845.70;107459;1247;62288;-82
2023/12/15 10:27:33;;;;;;;7.00;3.80;;;;;;;3.60;100.00;101871.14;107403;1251;61964;-77
2023/12/15 10:30:02;;;;;;;6.60;3.90;;;;;;;3.56;100.00;101874.52;107535;1260;61442;-74
2023/12/15 10:32:31;;;;;;;7.10;4.40;;;;;;;3.62;100.00;101865.75;107061;1251;60019;-75
2023/12/15 10:35:01;;;;;;;8.10;4.40;;;;;;;3.64;100.00;101865.72;106831;1260;62361;-76
2023/12/15 10:37:50;;;;;;;12.60;5.20;;;;;;;3.70;100.00;101868.15;106966;1248;58926;-77
2023/12/15 10:40:45;;;;;;;7.20;4.00;;;;;;;3.66;100.00;101875.14;107137;1247;58964;-77
2023/12/15 10:43:16;;;;;;;6.40;4.20;;;;;;;3.62;100.00;101880.91;106858;1248;61879;-79
2023/12/15 10:45:46;;;;;;;8.00;4.40;;;;;;;3.65;100.00;101876.89;107192;1245;71342;-75
2023/12/15 10:48:15;;;;;;;10.30;5.30;;;;;;;3.72;100.00;101870.69;106882;1251;59761;-74
2023/12/15 10:50:45;;;;;;;9.30;5.50;;;;;;;3.70;100.00;101874.70;107078;1244;73616;-73
2023/12/15 10:53:19;;;;;;;10.30;4.90;;;;;;;3.73;100.00;101880.99;107143;1245;62498;-75
2023/12/15 18:54:30;;;;;;;23.70;12.20;;;;;;;2.32;100.00;102450.48;104169;1286;600766;-77
2023/12/15 18:56:59;;;;;;;21.60;12.20;;;;;;;2.33;100.00;102455.79;107147;1251;59093;-77
2023/12/15 18:59:30;;;;;;;18.20;10.60;;;;;;;2.43;100.00;102457.21;106957;1248;61137;-73
2023/12/15 19:02:18;;;;;;;19.70;11.80;;;;;;;2.56;100.00;102455.73;106890;1252;73647;-79
2023/12/15 19:04:47;;;;;;;18.10;10.20;;;;;;;2.58;100.00;102464.98;106907;1248;72860;-78
2023/12/15 19:07:45;;;;;;;22.50;11.50;;;;;;;2.58;100.00;102473.74;106631;1260;227183;-74
2023/12/15 19:10:24;;;;;;;15.70;8.90;;;;;;;2.62;100.00;102473.88;106972;1258;75051;-73
2023/12/15 19:12:53;;;;;;;17.30;10.40;;;;;;;2.68;100.00;102488.09;107079;1258;62300;-77
2023/12/15 19:22:52;;;;;;;14.60;9.40;;;;;;;2.82;100.00;102505.48;104378;1277;602469;-74
2023/12/15 19:25:38;;;;;;;20.10;12.20;;;;;;;2.78;100.00;102510.52;106448;1265;62502;-74
2023/12/15 19:28:09;;;;;;;13.90;8.10;;;;;;;2.76;100.00;102507.27;106548;1255;61427;-75
2023/12/15 19:30:38;;;;;;;17.10;10.20;;;;;;;2.73;100.00;102498.70;106411;1253;61590;-74
2023/12/15 19:33:07;;;;;;;17.30;10.80;;;;;;;2.72;100.00;102491.84;106897;1251;60942;-73
2023/12/15 19:35:37;;;;;;;14.50;9.00;;;;;;;2.70;100.00;102498.75;106710;1244;243821;-75
2023/12/15 19:38:06;;;;;;;16.20;10.10;;;;;;;2.70;100.00;102516.47;107038;1258;63742;-75
2023/12/15 19:40:36;;;;;;;14.30;9.10;;;;;;;2.67;100.00;102523.70;107135;1248;57205;-74
2023/12/15 19:43:06;;;;;;;15.20;9.20;;;;;;;2.75;100.00;102527.06;107190;1245;60385;-75
2023/12/15 19:45:39;;;;;;;18.60;10.60;;;;;;;2.74;100.00;102529.33;107131;1254;61958;-75
2023/12/15 19:48:08;;;;;;;15.10;8.90;;;;;;;2.73;100.00;102525.21;107146;1247;73119;-75
2023/12/15 19:50:37;;;;;;;15.80;8.90;;;;;;;2.69;100.00;102531.78;107031;1246;71278;-73
2023/12/15 19:53:06;;;;;;;14.80;9.20;;;;;;;2.72;100.00;102540.00;106989;1247;74544;-75
2023/12/15 19:55:37;;;;;;;16.60;10.00;;;;;;;2.69;100.00;102535.55;106945;1248;62098;-72
2023/12/15 19:58:06;;;;;;;14.70;9.20;;;;;;;2.70;100.00;102541.06;107071;1247;60954;-74
2023/12/15 20:00:37;;;;;;;16.20;7.60;;;;;;;2.71;100.00;102547.41;106982;1247;62530;-76
2023/12/15 20:03:06;;;;;;;11.00;7.30;;;;;;;2.60;100.00;102551.64;106851;1252;60924;-75
2023/12/15 20:05:35;;;;;;;13.00;7.20;;;;;;;2.61;100.00;102555.60;107071;1254;67841;-77
2023/12/15 20:08:04;;;;;;;9.40;6.30;;;;;;;2.69;100.00;102565.85;106853;1248;72037;-75
2023/12/15 20:10:33;;;;;;;11.10;6.80;;;;;;;2.57;100.00;102568.70;106936;1249;61136;-74
2023/12/15 20:13:02;;;;;;;12.80;8.00;;;;;;;2.33;100.00;102539.70;107069;1247;60213;-74
2023/12/15 20:15:34;;;;;;;10.80;6.90;;;;;;;2.56;100.00;102573.89;106896;1252;62110;-73
2023/12/15 20:18:03;;;;;;;12.40;7.50;;;;;;;2.51;100.00;102579.42;106928;1251;61605;-73
2023/12/15 20:20:53;;;;;;;11.80;7.00;;;;;;;2.48;100.00;102581.35;106936;1258;69687;-72
2023/12/15 20:23:42;;;;;;;12.60;7.60;;;;;;;2.45;100.00;102587.73;106812;1250;64893;-73
2023/12/15 20:26:11;;;;;;;12.70;6.40;;;;;;;2.41;100.00;102587.26;106982;1251;58960;-73
2023/12/15 20:28:40;;;;;;;9.30;6.10;;;;;;;2.48;100.00;102593.56;107037;1247;61052;-73
2023/12/15 20:31:11;;;;;;;10.80;6.20;;;;;;;2.48;100.00;102594.26;106964;1248;72399;-74
2023/12/15 20:33:40;;;;;;;10.80;6.10;;;;;;;2.39;100.00;102601.89;106968;1251;61284;-74
2023/12/15 20:36:10;;;;;;;11.30;6.90;;;;;;;2.42;100.00;102609.09;107019;1247;70400;-73
2023/12/15 20:38:44;;;;;;;12.70;6.80;;;;;;;2.38;100.00;102612.40;107103;1252;63526;-74
2023/12/15 20:41:21;;;;;;;11.80;7.50;;;;;;;2.40;100.00;102613.23;107232;1249;58961;-75
2023/12/15 20:43:51;;;;;;;10.70;6.10;;;;;;;2.38;100.00;102617.73;106959;1248;59078;-74
2023/12/15 20:46:21;;;;;;;12.90;7.30;;;;;;;2.43;100.00;102619.40;107021;1255;61250;-72
2023/12/15 20:48:52;;;;;;;11.20;7.10;;;;;;;2.44;100.00;102625.06;106873;1251;62962;-73
2023/12/15 20:51:22;;;;;;;12.00;6.50;;;;;;;2.40;100.00;102625.61;106904;1248;69786;-74
2023/12/15 20:53:51;;;;;;;11.00;6.70;;;;;;;2.40;100.00;102627.85;107682;1251;71876;-73
2023/12/15 20:56:28;;;;;;;11.50;6.30;;;;;;;2.35;100.00;102632.19;107748;1247;61612;-74
2023/12/15 20:58:58;;;;;;;11.10;6.00;;;;;;;2.26;100.00;102640.52;106777;1251;59073;-73
2023/12/15 21:01:27;;;;;;;9.50;6.00;;;;;;;2.32;100.00;102644.08;107568;1248;62424;-73
2023/12/15 21:03:57;;;;;;;8.90;4.90;;;;;;;2.33;100.00;102644.23;107031;1249;60928;-72
2023/12/15 21:06:27;;;;;;;10.20;5.40;;;;;;;2.29;100.00;102650.29;107028;1259;69087;-72
2023/12/15 21:08:56;;;;;;;10.40;5.40;;;;;;;2.14;100.00;102648.15;107059;1259;63493;-73
2023/12/15 21:11:25;;;;;;;10.70;5.70;;;;;;;2.03;100.00;102650.45;106943;1251;59130;-74
2023/12/15 21:13:56;;;;;;;8.30;4.30;;;;;;;2.06;100.00;102660.58;107072;1248;59084;-74
2023/12/15 21:16:26;;;;;;;6.30;3.80;;;;;;;2.06;100.00;102663.67;107032;1248;61938;-73
2023/12/15 21:18:56;;;;;;;7.10;4.00;;;;;;;2.03;100.00;102661.80;107005;1249;60653;-73
2023/12/15 21:21:30;;;;;;;6.80;4.20;;;;;;;1.99;100.00;102663.71;107062;1248;61546;-73
2023/12/15 21:24:00;;;;;;;7.40;4.40;;;;;;;1.90;100.00;102672.17;106910;1249;72492;-76
2023/12/15 21:26:29;;;;;;;7.50;4.40;;;;;;;1.89;100.00;102680.60;107058;1248;62196;-74
2023/12/15 21:28:58;;;;;;;7.10;4.40;;;;;;;1.82;100.00;102693.00;107216;1245;61032;-74
2023/12/15 21:31:28;;;;;;;6.40;3.80;;;;;;;1.73;100.00;102694.08;107189;1256;62087;-73
2023/12/15 21:33:57;;;;;;;6.10;4.00;;;;;;;1.75;100.00;102700.09;107228;1245;72052;-73
2023/12/15 21:36:26;;;;;;;7.40;4.50;;;;;;;1.68;100.00;102707.33;107236;1256;59531;-73
2023/12/15 21:38:55;;;;;;;6.00;3.30;;;;;;;1.64;100.00;102713.00;107189;1256;62746;-73
2023/12/15 21:41:24;;;;;;;6.30;4.10;;;;;;;1.56;100.00;102715.26;107201;1244;58550;-73
2023/12/15 21:43:55;;;;;;;7.50;4.00;;;;;;;1.47;100.00;102710.31;107205;1245;59439;-76
2023/12/15 21:46:23;;;;;;;6.20;3.90;;;;;;;1.42;100.00;102704.82;107174;1245;71663;-74
2023/12/15 21:48:55;;;;;;;9.20;5.00;;;;;;;1.42;100.00;102703.96;107202;1244;72222;-74
2023/12/15 21:51:26;;;;;;;7.50;4.30;;;;;;;1.39;100.00;102704.48;107215;1248;60397;-75
2023/12/15 21:54:01;;;;;;;9.10;4.20;;;;;;;1.37;100.00;102705.19;107171;1245;72592;-73
2023/12/15 21:56:30;;;;;;;6.70;3.80;;;;;;;1.33;100.00;102700.04;107177;1253;61894;-74
2023/12/15 21:58:59;;;;;;;5.70;3.60;;;;;;;1.42;100.00;102699.50;107264;1245;60795;-73
2023/12/15 22:01:28;;;;;;;7.40;4.10;;;;;;;1.45;100.00;102702.59;107263;1256;73431;-73
2023/12/15 22:03:58;;;;;;;7.70;4.80;;;;;;;1.37;100.00;102702.44;107235;1248;70367;-75
2023/12/15 22:06:27;;;;;;;7.50;4.20;;;;;;;1.35;100.00;102706.04;107235;1245;68254;-74
2023/12/15 22:08:56;;;;;;;7.50;4.00;;;;;;;1.30;100.00;102710.01;107072;1246;74772;-76
2023/12/15 22:11:25;;;;;;;7.70;4.20;;;;;;;1.22;100.00;102712.60;107184;1245;62063;-74
2023/12/15 22:13:54;;;;;;;6.90;4.00;;;;;;;1.23;100.00;102706.77;107210;1243;60857;-74
2023/12/15 22:16:23;;;;;;;7.20;3.90;;;;;;;1.29;100.00;102710.35;107200;1245;72465;-73
2023/12/15 22:18:52;;;;;;;8.30;4.50;;;;;;;1.22;100.00;102712.42;107148;1243;71558;-73
2023/12/15 22:21:22;;;;;;;5.80;3.60;;;;;;;1.15;100.00;102713.64;107268;1245;69117;-72
2023/12/15 22:23:52;;;;;;;7.10;3.80;;;;;;;1.18;100.00;102721.17;107242;1256;72118;-72
2023/12/15 22:26:22;;;;;;;8.40;3.70;;;;;;;1.09;100.00;102719.48;107198;1250;61040;-72
2023/12/15 22:28:51;;;;;;;6.20;3.60;;;;;;;1.10;100.00;102722.91;107274;1245;59052;-73
2023/12/15 22:31:21;;;;;;;6.10;3.20;;;;;;;1.07;100.00;102723.42;107291;1256;70267;-73
2023/12/15 22:33:51;;;;;;;5.40;3.10;;;;;;;1.04;100.00;102726.69;107144;1256;71938;-73
2023/12/15 22:36:21;;;;;;;6.00;3.10;;;;;;;0.99;100.00;102724.80;107116;1245;70902;-73
2023/12/15 22:38:50;;;;;;;6.90;3.90;;;;;;;0.94;100.00;102723.60;107116;1255;74341;-73
2023/12/15 22:41:19;;;;;;;7.00;3.80;;;;;;;0.80;100.00;102722.58;107143;1245;62263;-73
2023/12/15 22:43:48;;;;;;;6.60;3.80;;;;;;;0.76;100.00;102724.11;107096;1246;60411;-73
2023/12/15 22:46:17;;;;;;;7.70;4.00;;;;;;;0.64;100.00;102721.70;106930;1257;72020;-73
2023/12/15 22:48:46;;;;;;;9.00;4.80;;;;;;;0.56;100.00;102722.90;107165;1245;71280;-73
2023/12/15 22:51:16;;;;;;;6.30;3.60;;;;;;;0.38;100.00;102725.61;107162;1245;71215;-73
2023/12/15 22:53:45;;;;;;;6.40;3.80;;;;;;;0.41;100.00;102727.84;107236;1245;74060;-73
2023/12/15 22:56:14;;;;;;;6.90;3.50;;;;;;;0.33;100.00;102732.28;107066;1248;60388;-73